createdAt,value
2022-09-22T00:00:34.856Z,7.20
2022-09-22T00:03:01.262Z,7.60
2022-09-22T00:05:27.578Z,8.82
2022-09-22T00:07:54.039Z,7.53
2022-09-22T00:10:23.367Z,8.20
2022-09-22T00:12:50.320Z,7.05
2022-09-22T00:15:17.670Z,6.93
2022-09-22T00:17:44.435Z,7.50
2022-09-22T00:20:14.044Z,7.70
2022-09-22T00:22:40.836Z,7.93
2022-09-22T00:25:08.298Z,8.05
2022-09-22T00:27:34.846Z,7.82
2022-09-22T00:30:01.276Z,7.07
2022-09-22T00:32:28.275Z,7.38
2022-09-22T00:34:54.566Z,6.75
2022-09-22T00:37:20.926Z,6.70
2022-09-22T00:39:47.329Z,6.65
2022-09-22T00:42:13.624Z,6.80
2022-09-22T00:44:40.078Z,6.72
2022-09-22T00:47:12.069Z,6.32
2022-09-22T00:49:44.549Z,6.75
2022-09-22T00:52:13.503Z,6.47
2022-09-22T00:54:40.107Z,6.88
2022-09-22T00:57:10.822Z,8.52
2022-09-22T00:59:37.587Z,8.32
2022-09-22T01:02:04.353Z,8.15
2022-09-22T01:04:30.846Z,7.78
2022-09-22T01:06:57.797Z,7.72
2022-09-22T01:09:24.244Z,8.15
2022-09-22T01:11:50.734Z,7.43
2022-09-22T01:14:33.094Z,7.60
2022-09-22T01:17:10.975Z,7.70
2022-09-22T01:19:49.478Z,8.20
2022-09-22T01:22:21.993Z,8.27
2022-09-22T01:25:00.490Z,8.82
2022-09-22T01:27:46.589Z,8.52
2022-09-22T01:32:58.083Z,9.30
2022-09-22T01:35:33.266Z,8.23
2022-09-22T01:38:02.366Z,8.95
2022-09-22T01:40:32.107Z,9.27
2022-09-22T01:43:07.866Z,9.10
2022-09-22T01:48:09.133Z,9.45
2022-09-22T01:50:46.840Z,9.95
2022-09-22T01:53:14.642Z,9.98
2022-09-22T01:55:43.004Z,9.98
2022-09-22T01:58:14.935Z,10.25
2022-09-22T02:00:46.769Z,9.48
2022-09-22T02:03:15.563Z,9.57
2022-09-22T02:05:45.599Z,10.07
2022-09-22T02:08:15.145Z,9.95
2022-09-22T02:10:45.368Z,9.45
2022-09-22T02:13:11.829Z,7.85
2022-09-22T02:15:56.981Z,8.30
2022-09-22T02:18:25.776Z,9.20
2022-09-22T02:20:52.228Z,8.23
2022-09-22T02:23:18.564Z,9.38
2022-09-22T02:25:45.850Z,8.55
2022-09-22T02:28:15.951Z,9.63
2022-09-22T02:30:58.904Z,8.93
2022-09-22T02:33:34.868Z,9.63
2022-09-22T02:36:12.459Z,9.45
2022-09-22T02:38:44.438Z,9.63
2022-09-22T02:41:14.927Z,8.95
2022-09-22T02:43:53.900Z,9.65
2022-09-22T02:46:23.759Z,9.43
2022-09-22T02:48:51.433Z,8.10
2022-09-22T02:51:18.480Z,7.85
2022-09-22T02:53:44.817Z,8.32
2022-09-22T02:56:11.302Z,8.20
2022-09-22T02:58:37.798Z,7.40
2022-09-22T03:01:04.291Z,7.00
2022-09-22T03:03:30.963Z,6.70
2022-09-22T03:05:59.503Z,7.53
2022-09-22T03:08:25.815Z,7.88
2022-09-22T03:10:52.195Z,8.65
2022-09-22T03:13:18.601Z,8.45
2022-09-22T03:15:45.691Z,8.00
2022-09-22T03:18:12.292Z,7.43
2022-09-22T03:20:38.639Z,8.13
2022-09-22T03:23:05.073Z,8.32
2022-09-22T03:25:31.381Z,8.75
2022-09-22T03:27:57.712Z,8.82
2022-09-22T03:30:24.121Z,9.60
2022-09-22T03:32:50.476Z,11.02
2022-09-22T03:35:16.833Z,10.18
2022-09-22T03:37:43.294Z,9.45
2022-09-22T03:40:09.868Z,10.35
2022-09-22T03:42:36.300Z,10.40
2022-09-22T03:45:04.436Z,9.63
2022-09-22T03:47:31.012Z,9.65
2022-09-22T03:49:57.464Z,10.15
2022-09-22T03:52:24.130Z,8.43
2022-09-22T03:54:52.117Z,7.85
2022-09-22T03:57:18.501Z,8.00
2022-09-22T03:59:44.808Z,7.07
2022-09-22T04:02:11.473Z,7.65
2022-09-22T04:04:37.869Z,8.25
2022-09-22T04:07:07.221Z,8.10
2022-09-22T04:09:33.931Z,8.23
2022-09-22T04:12:03.420Z,8.30
2022-09-22T04:14:33.055Z,7.53
2022-09-22T04:16:59.432Z,7.80
2022-09-22T04:19:26.348Z,8.95
2022-09-22T04:21:57.045Z,9.55
2022-09-22T04:24:24.396Z,9.07
2022-09-22T04:27:08.600Z,8.90
2022-09-22T04:29:37.431Z,8.82
2022-09-22T04:32:04.129Z,8.65
2022-09-22T04:34:30.443Z,8.75
2022-09-22T04:36:56.962Z,8.75
2022-09-22T04:39:24.070Z,8.98
2022-09-22T04:41:50.984Z,9.05
2022-09-22T04:44:17.405Z,7.85
2022-09-22T04:46:46.177Z,7.85
2022-09-22T04:49:13.234Z,7.90
2022-09-22T04:51:39.593Z,8.15
2022-09-22T04:54:06.068Z,8.32
2022-09-22T04:56:32.493Z,7.90
2022-09-22T04:58:58.843Z,8.10
2022-09-22T05:01:27.417Z,8.63
2022-09-22T05:03:54.055Z,8.35
2022-09-22T05:06:20.416Z,8.23
2022-09-22T05:08:46.713Z,7.75
2022-09-22T05:11:13.068Z,7.72
2022-09-22T05:13:41.049Z,10.20
2022-09-22T05:16:08.374Z,7.57
2022-09-22T05:18:34.990Z,6.55
2022-09-22T05:21:01.993Z,6.50
2022-09-22T05:23:28.372Z,5.90
2022-09-22T05:25:54.909Z,6.07
2022-09-22T05:28:24.287Z,6.13
2022-09-22T05:30:51.462Z,6.35
2022-09-22T05:33:17.926Z,6.45
2022-09-22T05:35:44.281Z,5.95
2022-09-22T05:38:10.637Z,5.70
2022-09-22T05:40:37.050Z,5.38
2022-09-22T05:43:03.471Z,5.57
2022-09-22T05:45:29.895Z,5.72
2022-09-22T05:47:58.247Z,5.57
2022-09-22T05:50:24.693Z,6.50
2022-09-22T05:52:51.040Z,6.70
2022-09-22T05:55:17.835Z,6.43
2022-09-22T05:57:44.138Z,6.40
2022-09-22T06:00:10.980Z,7.30
2022-09-22T06:02:37.364Z,8.18
2022-09-22T06:05:03.802Z,7.28
2022-09-22T06:07:30.240Z,8.15
2022-09-22T06:09:56.625Z,7.47
2022-09-22T06:12:23.061Z,7.85
2022-09-22T06:14:49.349Z,7.93
2022-09-22T06:17:18.613Z,8.85
2022-09-22T06:19:49.763Z,9.40
2022-09-22T06:22:17.090Z,9.95
2022-09-22T06:24:43.649Z,9.70
2022-09-22T06:27:10.006Z,10.70
2022-09-22T06:29:37.948Z,10.82
2022-09-22T06:32:07.888Z,11.32
2022-09-22T06:34:35.066Z,11.85
2022-09-22T06:37:02.284Z,11.77
2022-09-22T06:39:29.030Z,11.75
2022-09-22T06:41:56.591Z,11.30
2022-09-22T06:44:25.283Z,12.27
2022-09-22T06:46:51.601Z,14.25
2022-09-22T06:49:18.092Z,13.73
2022-09-22T06:51:44.628Z,14.40
2022-09-22T06:54:11.591Z,14.55
2022-09-22T06:56:40.212Z,14.35
2022-09-22T06:59:10.966Z,14.15
2022-09-22T07:01:38.038Z,14.93
2022-09-22T07:04:04.817Z,13.75
2022-09-22T07:06:31.430Z,13.18
2022-09-22T07:08:57.814Z,13.38
2022-09-22T07:11:24.204Z,13.48
2022-09-22T07:13:54.338Z,11.70
2022-09-22T07:16:22.708Z,12.43
2022-09-22T07:18:50.091Z,12.50
2022-09-22T07:21:20.957Z,10.38
2022-09-22T07:23:49.900Z,11.05
2022-09-22T07:26:20.538Z,10.73
2022-09-22T07:28:50.327Z,10.07
2022-09-22T07:31:17.294Z,10.13
2022-09-22T07:33:44.792Z,9.20
2022-09-22T07:36:15.715Z,9.25
2022-09-22T07:38:43.034Z,9.57
2022-09-22T07:41:12.167Z,10.07
2022-09-22T07:43:39.381Z,9.32
2022-09-22T07:46:06.130Z,9.68
2022-09-22T07:48:41.609Z,8.73
2022-09-22T07:51:15.738Z,9.50
2022-09-22T07:53:43.053Z,8.25
2022-09-22T07:56:13.478Z,8.13
2022-09-22T07:58:41.246Z,8.48
2022-09-22T08:01:10.313Z,8.13
2022-09-22T08:03:37.939Z,7.30
2022-09-22T08:06:10.297Z,6.85
2022-09-22T08:08:37.633Z,7.05
2022-09-22T08:11:05.024Z,6.85
2022-09-22T08:13:31.602Z,7.80
2022-09-22T08:16:02.228Z,6.85
2022-09-22T08:18:28.696Z,7.38
2022-09-22T08:20:55.001Z,6.68
2022-09-22T08:23:21.357Z,6.15
2022-09-22T08:25:47.710Z,6.28
2022-09-22T08:28:14.364Z,5.68
2022-09-22T08:30:45.180Z,5.72
2022-09-22T08:33:11.470Z,5.95
2022-09-22T08:35:37.869Z,5.03
2022-09-22T08:38:06.242Z,5.03
2022-09-22T08:40:35.071Z,4.47
2022-09-22T08:43:01.665Z,4.72
2022-09-22T08:45:33.319Z,4.70
2022-09-22T08:48:25.403Z,5.07
2022-09-22T08:51:11.284Z,4.72
2022-09-22T08:53:45.655Z,3.95
2022-09-22T08:56:20.201Z,3.17
2022-09-22T08:58:50.558Z,4.07
2022-09-22T09:01:35.237Z,3.60
2022-09-22T09:04:01.615Z,3.30
2022-09-22T09:06:47.571Z,3.15
2022-09-22T09:09:13.921Z,3.58
2022-09-22T09:11:46.589Z,3.50
2022-09-22T09:14:27.999Z,3.80
2022-09-22T09:17:00.027Z,3.67
2022-09-22T09:19:47.816Z,3.70
2022-09-22T09:22:14.112Z,3.70
2022-09-22T09:27:30.424Z,2.65
2022-09-22T09:30:03.263Z,2.00
2022-09-22T09:32:34.500Z,2.25
2022-09-22T09:35:01.874Z,2.60
2022-09-22T09:37:28.794Z,2.20
2022-09-22T09:39:55.870Z,1.63
2022-09-22T09:42:25.284Z,1.73
2022-09-22T09:44:55.104Z,2.20
2022-09-22T09:47:24.486Z,1.70
2022-09-22T09:49:52.805Z,2.13
2022-09-22T09:52:20.967Z,2.00
2022-09-22T09:54:47.552Z,1.75
2022-09-22T09:57:15.367Z,1.60
2022-09-22T10:00:04.558Z,1.65
2022-09-22T10:02:38.696Z,1.17
2022-09-22T10:05:07.648Z,1.50
2022-09-22T10:07:41.693Z,1.40
2022-09-22T10:10:27.125Z,1.63
2022-09-22T10:12:53.788Z,1.30
2022-09-22T10:15:24.129Z,1.40
2022-09-22T10:17:51.268Z,1.67
2022-09-22T10:20:17.591Z,1.30
2022-09-22T10:22:43.991Z,0.93
2022-09-22T10:25:19.488Z,0.82
2022-09-22T10:27:58.705Z,0.93
2022-09-22T10:30:25.730Z,0.82
2022-09-22T10:33:05.041Z,0.95
2022-09-22T10:35:33.660Z,0.77
2022-09-22T10:38:10.311Z,0.75
2022-09-22T10:40:39.214Z,0.60
2022-09-22T10:43:07.109Z,0.63
2022-09-22T10:45:47.582Z,0.93
2022-09-22T10:48:29.466Z,0.80
2022-09-22T10:50:59.732Z,0.90
2022-09-22T10:53:35.558Z,1.00
2022-09-22T10:56:13.469Z,0.90
2022-09-22T10:58:49.076Z,1.10
2022-09-22T11:04:02.517Z,0.98
2022-09-22T11:07:02.960Z,0.90
2022-09-22T11:09:56.932Z,1.55
2022-09-22T11:12:46.761Z,1.00
2022-09-22T11:15:22.365Z,0.85
2022-09-22T11:17:52.157Z,1.13
2022-09-22T11:20:37.184Z,1.00
2022-09-22T11:23:17.163Z,1.33
2022-09-22T11:25:54.254Z,1.80
2022-09-22T11:28:39.146Z,1.10
2022-09-22T11:31:05.725Z,0.90
2022-09-22T11:33:50.678Z,1.00
2022-09-22T11:36:17.012Z,1.08
2022-09-22T11:39:01.651Z,0.95
2022-09-22T11:41:28.170Z,1.38
2022-09-22T11:44:06.375Z,1.10
2022-09-22T11:46:42.504Z,1.58
2022-09-22T11:49:08.956Z,1.83
2022-09-22T11:51:35.242Z,1.98
2022-09-22T11:54:10.857Z,1.83
2022-09-22T11:56:59.571Z,1.40
2022-09-22T11:59:35.214Z,1.33
2022-09-22T12:02:04.672Z,1.10
2022-09-22T12:04:36.136Z,0.85
2022-09-22T12:07:03.277Z,0.88
2022-09-22T12:09:38.955Z,0.90
2022-09-22T12:12:06.156Z,0.90
2022-09-22T12:14:33.120Z,1.05
2022-09-22T12:17:02.190Z,1.20
2022-09-22T12:22:42.234Z,1.30
2022-09-22T12:25:25.880Z,0.90
2022-09-22T12:28:01.790Z,1.40
2022-09-22T12:30:28.165Z,1.05
2022-09-22T12:32:54.583Z,1.20
2022-09-22T12:35:30.292Z,0.90
2022-09-22T12:38:00.838Z,1.20
2022-09-22T12:40:32.723Z,1.00
2022-09-22T12:43:01.910Z,1.02
2022-09-22T12:45:31.517Z,1.05
2022-09-22T12:47:59.332Z,1.05
2022-09-22T12:50:31.845Z,1.70
2022-09-22T12:53:16.980Z,1.38
2022-09-22T12:55:43.366Z,2.10
2022-09-22T12:58:21.348Z,1.40
2022-09-22T13:00:49.132Z,1.90
2022-09-22T13:03:24.444Z,1.27
2022-09-22T13:05:50.738Z,1.00
2022-09-22T13:08:18.386Z,3.20
2022-09-22T13:10:55.247Z,6.75
2022-09-22T13:13:24.807Z,4.15
2022-09-22T13:15:51.750Z,7.72
2022-09-22T13:18:37.863Z,4.80
2022-09-22T13:23:30.753Z,3.08
2022-09-22T13:26:05.023Z,4.60
2022-09-22T13:28:31.499Z,4.88
2022-09-22T13:31:09.866Z,3.05
2022-09-22T13:33:36.333Z,1.70
2022-09-22T13:36:04.873Z,0.80
2022-09-22T13:38:33.200Z,0.80
2022-09-22T13:40:59.635Z,0.60
2022-09-22T13:43:37.850Z,2.33
2022-09-22T13:46:04.798Z,3.00
2022-09-22T13:48:36.803Z,3.40
2022-09-22T13:51:05.372Z,0.90
2022-09-22T13:53:32.338Z,0.80
2022-09-22T13:55:59.545Z,0.80
2022-09-22T13:58:34.363Z,3.97
2022-09-22T14:01:13.156Z,3.42
2022-09-22T14:03:40.316Z,2.05
2022-09-22T14:06:11.686Z,1.65
2022-09-22T14:08:38.301Z,0.88
2022-09-22T14:11:06.163Z,0.50
2022-09-22T14:13:35.965Z,0.82
2022-09-22T14:16:07.321Z,1.20
2022-09-22T14:18:36.350Z,1.30
2022-09-22T14:21:02.700Z,0.57
2022-09-22T14:23:30.575Z,0.93
2022-09-22T14:25:59.374Z,2.38
2022-09-22T14:28:28.020Z,2.10
2022-09-22T14:30:54.586Z,6.15
2022-09-22T14:33:22.639Z,5.65
2022-09-22T14:35:52.112Z,6.03
2022-09-22T14:38:21.350Z,5.50
2022-09-22T14:40:54.862Z,3.00
2022-09-22T14:43:35.546Z,4.38
2022-09-22T14:46:08.671Z,4.68
2022-09-22T14:48:38.950Z,2.55
2022-09-22T14:51:07.452Z,4.47
2022-09-22T14:53:41.087Z,4.80
2022-09-22T14:56:16.331Z,2.58
2022-09-22T14:58:43.523Z,1.95
2022-09-22T15:01:31.741Z,1.70
2022-09-22T15:04:04.314Z,1.90
2022-09-22T15:06:37.304Z,1.08
2022-09-22T15:09:04.710Z,1.60
2022-09-22T15:11:49.934Z,1.10
2022-09-22T15:14:34.905Z,0.75
2022-09-22T15:17:20.914Z,1.20
2022-09-22T15:19:57.105Z,0.70
2022-09-22T15:22:24.491Z,0.90
2022-09-22T15:24:51.365Z,0.73
2022-09-22T15:27:17.797Z,0.80
2022-09-22T15:29:46.219Z,1.05
2022-09-22T15:32:12.799Z,0.80
2022-09-22T15:34:44.666Z,0.75
2022-09-22T15:37:15.228Z,0.85
2022-09-22T15:39:42.214Z,0.80
2022-09-22T15:42:13.474Z,1.00
2022-09-22T15:44:40.451Z,0.80
2022-09-22T15:47:10.459Z,0.80
2022-09-22T15:49:36.821Z,1.25
2022-09-22T15:52:04.808Z,0.70
2022-09-22T15:54:31.604Z,0.80
2022-09-22T15:56:59.677Z,0.90
2022-09-22T15:59:28.007Z,1.10
2022-09-22T16:01:56.958Z,1.30
2022-09-22T16:04:23.725Z,1.08
2022-09-22T16:06:53.075Z,1.02
2022-09-22T16:09:19.793Z,0.70
2022-09-22T16:11:46.609Z,0.80
2022-09-22T16:14:12.930Z,1.10
2022-09-22T16:16:39.599Z,0.88
2022-09-22T16:19:09.497Z,0.77
2022-09-22T16:21:36.961Z,0.73
2022-09-22T16:24:08.477Z,0.77
2022-09-22T16:26:35.904Z,0.80
2022-09-22T16:29:02.781Z,0.95
2022-09-22T16:31:29.210Z,0.80
2022-09-22T16:34:00.528Z,0.90
2022-09-22T16:36:28.809Z,1.15
2022-09-22T16:38:55.438Z,1.20
2022-09-22T16:41:24.172Z,0.90
2022-09-22T16:43:50.995Z,1.23
2022-09-22T16:46:35.882Z,1.17
2022-09-22T16:49:05.329Z,1.30
2022-09-22T16:51:33.416Z,1.02
2022-09-22T16:54:00.055Z,1.10
2022-09-22T16:56:27.332Z,1.15
2022-09-22T16:58:54.365Z,1.15
2022-09-22T17:01:20.873Z,1.00
2022-09-22T17:03:49.416Z,1.27
2022-09-22T17:06:16.597Z,1.30
2022-09-22T17:08:43.874Z,1.15
2022-09-22T17:11:13.538Z,1.17
2022-09-22T17:13:43.513Z,1.40
2022-09-22T17:16:22.088Z,1.42
2022-09-22T17:18:52.570Z,1.30
2022-09-22T17:21:21.969Z,1.35
2022-09-22T17:23:52.552Z,1.50
2022-09-22T17:26:20.270Z,1.50
2022-09-22T17:28:47.238Z,1.40
2022-09-22T17:31:13.758Z,1.63
2022-09-22T17:33:50.104Z,2.15
2022-09-22T17:36:23.102Z,1.60
2022-09-22T17:38:50.920Z,2.08
2022-09-22T17:41:19.692Z,1.90
2022-09-22T17:43:48.055Z,1.92
2022-09-22T17:46:15.671Z,1.95
2022-09-22T17:49:01.301Z,2.17
2022-09-22T17:51:46.137Z,2.40
2022-09-22T17:54:47.194Z,2.35
2022-09-22T17:57:15.179Z,2.05
2022-09-22T17:59:41.666Z,2.42
2022-09-22T18:02:10.461Z,2.17
2022-09-22T18:04:37.271Z,2.63
2022-09-22T18:07:06.640Z,2.45
2022-09-22T18:09:37.044Z,2.58
2022-09-22T18:12:04.379Z,2.40
2022-09-22T18:14:34.404Z,2.45
2022-09-22T18:17:00.846Z,2.75
2022-09-22T18:19:34.624Z,2.72
2022-09-22T18:22:02.818Z,3.00
2022-09-22T18:24:29.381Z,2.90
2022-09-22T18:26:55.719Z,3.08
2022-09-22T18:29:22.116Z,3.30
2022-09-22T18:31:53.090Z,3.42
2022-09-22T18:34:19.386Z,3.45
2022-09-22T18:36:45.981Z,3.55
2022-09-22T18:39:12.922Z,2.85
2022-09-22T18:41:39.425Z,3.30
2022-09-22T18:44:06.301Z,3.53
2022-09-22T18:46:34.690Z,3.95
2022-09-22T18:49:09.392Z,3.40
2022-09-22T18:51:37.184Z,3.80
2022-09-22T18:54:15.310Z,3.90
2022-09-22T18:56:43.030Z,3.60
2022-09-22T18:59:11.374Z,4.03
2022-09-22T19:01:37.866Z,4.18
2022-09-22T19:04:05.840Z,4.30
2022-09-22T19:06:52.341Z,5.00
2022-09-22T19:09:19.102Z,5.05
2022-09-22T19:11:45.431Z,5.82
2022-09-22T19:14:11.700Z,7.03
2022-09-22T19:16:42.310Z,6.25
2022-09-22T19:19:08.850Z,6.38
2022-09-22T19:21:38.078Z,6.07
2022-09-22T19:24:06.360Z,6.18
2022-09-22T19:26:32.859Z,6.18
2022-09-22T19:28:59.170Z,7.20
2022-09-22T19:31:25.545Z,6.38
2022-09-22T19:33:51.905Z,5.80
2022-09-22T19:36:18.188Z,6.10
2022-09-22T19:38:44.595Z,6.03
2022-09-22T19:41:12.198Z,6.90
2022-09-22T19:43:38.491Z,6.10
2022-09-22T19:46:04.927Z,5.70
2022-09-22T19:48:31.325Z,5.57
2022-09-22T19:50:59.464Z,6.78
2022-09-22T19:53:25.880Z,6.30
2022-09-22T19:55:53.759Z,4.80
2022-09-22T19:58:20.076Z,3.90
2022-09-22T20:00:47.252Z,5.00
2022-09-22T20:03:13.651Z,5.78
2022-09-22T20:05:40.169Z,5.82
2022-09-22T20:08:08.378Z,5.20
2022-09-22T20:10:37.029Z,4.93
2022-09-22T20:13:23.350Z,5.53
2022-09-22T20:15:49.673Z,6.00
2022-09-22T20:18:15.986Z,6.28
2022-09-22T20:20:42.370Z,4.38
2022-09-22T20:23:08.700Z,4.45
2022-09-22T20:25:35.136Z,4.95
2022-09-22T20:28:01.652Z,5.32
2022-09-22T20:30:27.986Z,4.72
2022-09-22T20:32:54.338Z,4.80
2022-09-22T20:35:23.157Z,4.90
2022-09-22T20:37:51.401Z,4.85
2022-09-22T20:40:20.925Z,5.28
2022-09-22T20:42:48.592Z,5.28
2022-09-22T20:45:15.136Z,5.80
2022-09-22T20:47:42.031Z,6.22
2022-09-22T20:50:08.589Z,6.10
2022-09-22T20:52:34.894Z,6.57
2022-09-22T20:55:01.455Z,6.07
2022-09-22T20:57:31.028Z,5.97
2022-09-22T20:59:57.910Z,5.75
2022-09-22T21:02:25.004Z,5.82
2022-09-22T21:04:53.337Z,7.30
2022-09-22T21:07:19.867Z,7.53
2022-09-22T21:10:04.768Z,6.30
2022-09-22T21:12:31.649Z,5.82
2022-09-22T21:14:58.332Z,5.82
2022-09-22T21:17:25.017Z,5.93
2022-09-22T21:19:51.468Z,5.50
2022-09-22T21:22:17.837Z,5.90
2022-09-22T21:24:45.774Z,5.72
2022-09-22T21:27:15.837Z,5.57
2022-09-22T21:29:42.331Z,5.82
2022-09-22T21:32:09.478Z,6.30
2022-09-22T21:34:36.470Z,5.78
2022-09-22T21:37:03.550Z,6.55
2022-09-22T21:39:29.917Z,6.78
2022-09-22T21:41:56.455Z,6.55
2022-09-22T21:44:23.982Z,6.88
2022-09-22T21:46:50.299Z,6.97
2022-09-22T21:49:16.842Z,7.18
2022-09-22T21:51:44.184Z,6.70
2022-09-22T21:54:14.702Z,5.90
2022-09-22T21:56:41.300Z,5.35
2022-09-22T21:59:08.044Z,5.82
2022-09-22T22:01:35.884Z,6.00
2022-09-22T22:04:02.806Z,5.10
2022-09-22T22:06:31.101Z,5.85
2022-09-22T22:09:04.158Z,6.93
2022-09-22T22:11:31.139Z,5.40
2022-09-22T22:13:58.177Z,5.72
2022-09-22T22:16:25.887Z,6.53
2022-09-22T22:18:52.282Z,6.32
2022-09-22T22:21:19.778Z,5.82
2022-09-22T22:23:47.442Z,6.05
2022-09-22T22:26:16.913Z,6.63
2022-09-22T22:28:44.112Z,6.95
2022-09-22T22:31:12.787Z,6.63
2022-09-22T22:33:39.930Z,6.07
2022-09-22T22:36:07.964Z,6.00
2022-09-22T22:38:38.184Z,5.90
2022-09-22T22:41:06.484Z,5.50
2022-09-22T22:43:33.145Z,6.07
2022-09-22T22:45:59.772Z,6.70
2022-09-22T22:48:26.755Z,6.40
2022-09-22T22:50:53.863Z,6.47
2022-09-22T22:53:24.277Z,6.50
2022-09-22T22:55:57.954Z,6.20
2022-09-22T22:58:25.267Z,7.00
2022-09-22T23:00:59.225Z,6.70
2022-09-22T23:03:26.423Z,6.80
2022-09-22T23:05:56.610Z,6.85
2022-09-22T23:08:22.914Z,8.25
2022-09-22T23:10:49.202Z,7.47
2022-09-22T23:13:15.623Z,7.50
2022-09-22T23:15:42.004Z,7.43
2022-09-22T23:18:08.405Z,8.02
2022-09-22T23:20:35.680Z,7.40
2022-09-22T23:23:03.549Z,8.00
2022-09-22T23:25:29.851Z,8.10
2022-09-22T23:27:56.369Z,7.53
2022-09-22T23:30:22.683Z,7.10
2022-09-22T23:32:48.960Z,8.18
2022-09-22T23:35:15.263Z,8.02
2022-09-22T23:37:41.602Z,7.68
2022-09-22T23:40:12.119Z,8.07
2022-09-22T23:42:38.654Z,7.82
2022-09-22T23:45:05.254Z,7.90
2022-09-22T23:47:32.881Z,8.02
2022-09-22T23:50:00.440Z,7.65
2022-09-22T23:52:27.108Z,7.53
2022-09-22T23:54:53.414Z,7.40
2022-09-22T23:57:22.673Z,7.85
2022-09-22T23:59:51.303Z,7.35
